Overview Statistics Trail Chart Weather Telemetry Raw packets
 

This is the latest recevied weather packets stored in our database for station/object K6POO-1. If no packets are shown the sender has not sent any weather packets the latest 10 day(s).

<< 97 98 99 100 101 102 103 >>
Time Temp. Humidity Pressure Rain* Wind** Luminosity Snow
1787964386 20° C 69% 1015.2 hPa 0 mm - 169 W/m² -
1787964085 20° C 69% 1015.1 hPa 0 mm - 184 W/m² -
1787963781 20° C 70% 1015.3 hPa 0 mm - 218 W/m² -
1787963481 19.44° C 72% 1015.1 hPa 0 mm - 287 W/m² -
1787963176 18.89° C 74% 1015.3 hPa 0 mm - 310 W/m² -
1787962874 18.33° C 75% 1015.1 hPa 0 mm - 245 W/m² -
1787962574 17.78° C 75% 1015.2 hPa 0 mm - 223 W/m² -
1787962273 17.78° C 77% 1014.8 hPa 0 mm - 228 W/m² -
1787961969 17.78° C 76% 1015 hPa 0 mm - 287 W/m² -
1787961663 17.78° C 76% 1015.2 hPa 0 mm - 317 W/m² -
1787961357 17.78° C 77% 1015.3 hPa 0 mm - 242 W/m² -
1787961051 17.78° C 78% 1015.5 hPa 0 mm - 343 W/m² -
1787960750 17.22° C 78% 1015.3 hPa 0 mm - 453 W/m² -
1787960445 17.78° C 77% 1015.5 hPa 0 mm - 217 W/m² -
1787960139 17.22° C 80% 1015.5 hPa 0 mm - 341 W/m² -
1787959839 16.67° C 81% 1015.5 hPa 0 mm - 620 W/m² -
1787959534 16.67° C 81% 1015.6 hPa 0 mm - 310 W/m² -
1787959234 16.67° C 81% 1015.6 hPa 0 mm - 302 W/m² -
1787958929 16.67° C 81% 1015.8 hPa 0 mm - 327 W/m² -
1787958624 16.67° C 81% 1015.5 hPa 0 mm - 271 W/m² -
1787958320 16.67° C 80% 1015.7 hPa 0 mm - 222 W/m² -
1787958015 16.67° C 80% 1015.9 hPa 0 mm - 263 W/m² -
1787957714 16.67° C 81% 1015.8 hPa 0 mm - 288 W/m² -
1787957409 16.67° C 81% 1016 hPa 0 mm - 256 W/m² -
1787957109 16.67° C 80% 1016.1 hPa 0 mm - 257 W/m² -

* Rain latest hour (hover to see other rain measurements)
** Current wind speed in m/s (hover to see current wind gust speed)